Time;durP1;ratioP1;P1;durP2;ratioP2;P2;SDS_P1;SDS_P2;PMS_P1;PMS_P2;Temp;Humidity;BMP_temperature;BMP_pressure;BME280_temperature;BME280_humidity;BME280_pressure;Samples;Min_cycle;Max_cycle;Signal;HPM_P1;HPM_P2
2022/10/03 04:01:14;;;;;;;0.80;0.70;;;;;;;;;;5676900;22;20567;-79
2022/10/03 04:03:53;;;;;;;1.10;0.50;;;;;;;;;;5012089;28;20416;-79
2022/10/03 04:06:25;;;;;;;1.73;0.70;;;;;;;;;;5014295;28;20431;-79
2022/10/03 04:08:59;;;;;;;1.50;0.63;;;;;;;;;;5014043;28;20408;-79
2022/10/03 04:11:31;;;;;;;2.20;0.60;;;;;;;;;;5015447;28;20376;-79
2022/10/03 04:14:10;;;;;;;1.77;0.70;;;;;;;;;;5015250;28;20377;-79
2022/10/03 04:19:48;;;;;;;0.93;0.87;;;;;;;;;;5015286;28;20489;-79
2022/10/03 04:22:37;;;;;;;0.70;0.60;;;;;;;;;;4997218;28;20405;-79
2022/10/03 04:25:19;;;;;;;1.27;0.60;;;;;;;;;;5014887;28;20471;-79
2022/10/03 04:28:25;;;;;;;0.98;0.55;;;;;;;;;;5014985;28;20373;-79
2022/10/03 04:30:57;;;;;;;1.92;0.70;;;;;;;;;;4954483;28;20798;-79
2022/10/03 04:33:42;;;;;;;2.13;0.70;;;;;;;;;;4954461;28;20436;-79
2022/10/03 04:36:26;;;;;;;0.65;0.65;;;;;;;;;;4954463;28;20401;-79
2022/10/03 04:39:04;;;;;;;1.80;0.75;;;;;;;;;;4954459;28;20480;-80
2022/10/03 04:41:42;;;;;;;1.60;0.85;;;;;;;;;;4954454;28;20429;-79
2022/10/03 04:44:31;;;;;;;1.75;0.70;;;;;;;;;;4954247;28;20422;-80
2022/10/03 04:47:01;;;;;;;2.20;0.90;;;;;;;;;;4946757;28;20456;-80
2022/10/03 04:49:31;;;;;;;2.15;0.93;;;;;;;;;;4954465;28;20437;-80
2022/10/03 04:52:05;;;;;;;1.00;0.90;;;;;;;;;;4953907;28;20390;-80
2022/10/03 04:54:43;;;;;;;9.02;4.80;;;;;;;;;;4954313;28;20393;-80
2022/10/03 04:57:30;;;;;;;3.40;1.45;;;;;;;;;;4953883;28;20873;-80
2022/10/03 05:00:07;;;;;;;1.45;1.17;;;;;;;;;;4954369;28;20393;-79
2022/10/03 05:02:48;;;;;;;1.73;1.27;;;;;;;;;;5008996;28;20416;-80
2022/10/03 05:05:32;;;;;;;1.60;1.40;;;;;;;;;;5014151;28;20781;-80
2022/10/03 05:08:21;;;;;;;4.55;1.63;;;;;;;;;;5014148;28;20377;-80
2022/10/03 05:10:47;;;;;;;2.00;1.50;;;;;;;;;;5014637;28;20917;-79
2022/10/03 05:13:15;;;;;;;3.58;1.60;;;;;;;;;;5008283;28;20412;-80
2022/10/03 05:15:44;;;;;;;3.05;1.80;;;;;;;;;;4996368;28;20794;-80
2022/10/03 05:18:10;;;;;;;2.15;1.80;;;;;;;;;;5013777;28;20389;-79
2022/10/03 05:20:57;;;;;;;2.15;1.95;;;;;;;;;;5013860;28;20403;-80
2022/10/03 05:23:30;;;;;;;2.47;2.00;;;;;;;;;;5013746;28;20826;-79
2022/10/03 05:26:14;;;;;;;1.92;1.73;;;;;;;;;;5013904;28;20377;-80
2022/10/03 05:29:00;;;;;;;2.35;2.10;;;;;;;;;;5014033;28;20373;-79
2022/10/03 05:31:34;;;;;;;3.22;1.95;;;;;;;;;;5013450;28;20423;-79
2022/10/03 05:34:21;;;;;;;2.40;1.80;;;;;;;;;;5013765;28;20384;-79
2022/10/03 05:37:19;;;;;;;3.70;2.00;;;;;;;;;;5013632;28;20373;-79
2022/10/03 05:40:04;;;;;;;2.05;1.80;;;;;;;;;;4980468;28;20472;-79
2022/10/03 05:42:30;;;;;;;2.00;1.80;;;;;;;;;;5012986;28;20409;-81
2022/10/03 05:45:02;;;;;;;3.20;2.20;;;;;;;;;;5010494;28;20740;-79
2022/10/03 05:47:43;;;;;;;3.38;1.80;;;;;;;;;;5008158;28;20381;-79
2022/10/03 05:50:12;;;;;;;2.88;2.30;;;;;;;;;;5010552;28;20466;-79
2022/10/03 05:52:49;;;;;;;2.17;1.98;;;;;;;;;;5012018;28;20874;-79
2022/10/03 05:55:33;;;;;;;2.17;2.00;;;;;;;;;;5013455;28;20392;-79
2022/10/03 05:57:59;;;;;;;2.72;2.22;;;;;;;;;;5004352;28;20403;-80
2022/10/03 06:00:26;;;;;;;2.78;1.98;;;;;;;;;;5012388;28;20385;-81
2022/10/03 06:02:52;;;;;;;3.30;2.33;;;;;;;;;;5013062;28;20408;-83
2022/10/03 06:05:24;;;;;;;2.53;2.20;;;;;;;;;;5011412;28;20458;-82
2022/10/03 06:08:15;;;;;;;2.33;2.13;;;;;;;;;;5004242;28;20388;-80
2022/10/03 06:10:49;;;;;;;3.00;2.50;;;;;;;;;;5011272;28;20373;-80
2022/10/03 06:13:20;;;;;;;3.03;2.38;;;;;;;;;;5012187;28;20385;-81
2022/10/03 06:15:55;;;;;;;4.18;2.50;;;;;;;;;;5012375;28;20391;-81
2022/10/03 06:18:31;;;;;;;2.70;2.20;;;;;;;;;;5013119;28;20403;-81
2022/10/03 06:21:15;;;;;;;3.60;2.60;;;;;;;;;;5012799;28;20430;-82
2022/10/03 06:23:56;;;;;;;2.40;2.20;;;;;;;;;;5010783;28;20408;-82
2022/10/03 06:26:41;;;;;;;2.70;2.40;;;;;;;;;;5010647;28;20409;-83
2022/10/03 06:29:07;;;;;;;3.75;2.50;;;;;;;;;;5008379;28;20397;-82
2022/10/03 06:31:48;;;;;;;3.10;2.63;;;;;;;;;;5011322;28;20834;-81
2022/10/03 06:34:17;;;;;;;3.40;2.80;;;;;;;;;;5001323;28;20454;-81
2022/10/03 06:36:46;;;;;;;2.75;2.55;;;;;;;;;;4993035;28;20937;-81
2022/10/03 06:39:21;;;;;;;2.80;2.40;;;;;;;;;;5010252;28;20829;-83
2022/10/03 06:42:06;;;;;;;2.95;2.30;;;;;;;;;;5011216;28;20392;-82
2022/10/03 06:44:57;;;;;;;2.65;2.28;;;;;;;;;;5010799;28;20397;-81
2022/10/03 06:47:35;;;;;;;3.30;2.17;;;;;;;;;;5011132;28;20397;-81
2022/10/03 06:50:21;;;;;;;5.07;2.65;;;;;;;;;;5012500;28;20941;-81
2022/10/03 06:53:01;;;;;;;2.63;2.28;;;;;;;;;;5012460;28;20385;-81
2022/10/03 06:55:33;;;;;;;3.08;2.53;;;;;;;;;;5012550;28;20985;-82
2022/10/03 06:58:05;;;;;;;3.05;2.70;;;;;;;;;;5004854;28;20884;-81
2022/10/03 07:00:40;;;;;;;3.05;2.60;;;;;;;;;;5012396;28;20483;-81
2022/10/03 07:03:24;;;;;;;2.65;2.45;;;;;;;;;;5014876;28;20904;-81
2022/10/03 07:05:53;;;;;;;2.65;2.45;;;;;;;;;;5000014;28;20786;-82
2022/10/03 07:08:59;;;;;;;3.03;2.72;;;;;;;;;;5012911;28;20369;-82
2022/10/03 07:11:43;;;;;;;3.85;2.65;;;;;;;;;;4952123;28;20413;-81
2022/10/03 07:14:19;;;;;;;4.13;2.78;;;;;;;;;;4952108;28;20381;-81
2022/10/03 07:16:45;;;;;;;2.97;2.75;;;;;;;;;;4951220;28;20421;-81
2022/10/03 07:19:18;;;;;;;3.05;2.80;;;;;;;;;;4948842;28;20804;-81
2022/10/03 07:22:03;;;;;;;2.72;2.53;;;;;;;;;;4947692;28;20393;-81
2022/10/03 07:25:01;;;;;;;3.38;2.80;;;;;;;;;;4951837;28;20472;-81
2022/10/03 07:27:39;;;;;;;3.45;2.30;;;;;;;;;;4951880;28;20457;-81
2022/10/03 07:30:10;;;;;;;3.38;2.72;;;;;;;;;;4952008;28;20962;-81
2022/10/03 07:32:42;;;;;;;4.80;2.70;;;;;;;;;;4952030;28;20421;-81
2022/10/03 07:38:56;;;;;;;2.95;2.53;;;;;;;;;;4935213;29;21078;-81
2022/10/03 07:41:23;;;;;;;2.40;2.20;;;;;;;;;;4953768;28;20392;-81
2022/10/03 07:43:59;;;;;;;3.25;2.33;;;;;;;;;;5015793;28;20447;-81
2022/10/03 07:46:28;;;;;;;2.72;2.45;;;;;;;;;;5015869;28;20420;-81
2022/10/03 07:49:14;;;;;;;3.30;2.60;;;;;;;;;;5015645;28;20377;-80
2022/10/03 07:51:43;;;;;;;3.08;2.35;;;;;;;;;;5015934;28;20373;-81
2022/10/03 07:54:29;;;;;;;3.83;2.30;;;;;;;;;;5015621;28;20380;-81
2022/10/03 07:57:08;;;;;;;3.83;2.80;;;;;;;;;;5015657;28;20376;-81
2022/10/03 07:59:53;;;;;;;3.47;2.67;;;;;;;;;;5015678;28;20862;-81
2022/10/03 08:02:19;;;;;;;3.80;3.22;;;;;;;;;;5015205;28;20416;-81
2022/10/03 08:04:45;;;;;;;3.83;2.88;;;;;;;;;;5015292;28;20409;-81
2022/10/03 08:07:11;;;;;;;3.50;2.83;;;;;;;;;;5015251;28;20385;-81
2022/10/03 08:09:37;;;;;;;3.72;2.92;;;;;;;;;;5013004;28;20380;-81
2022/10/03 08:12:22;;;;;;;4.63;2.65;;;;;;;;;;5015233;28;21020;-81
2022/10/03 08:15:04;;;;;;;5.82;3.60;;;;;;;;;;4997438;28;20719;-81
2022/10/03 08:17:36;;;;;;;5.22;3.38;;;;;;;;;;5015225;28;20409;-81
2022/10/03 08:20:14;;;;;;;5.18;3.90;;;;;;;;;;5015124;28;20385;-81
2022/10/03 08:22:40;;;;;;;4.38;3.58;;;;;;;;;;4997194;28;20463;-81
2022/10/03 08:25:18;;;;;;;3.50;3.20;;;;;;;;;;5015189;28;20734;-81
2022/10/03 08:28:02;;;;;;;4.35;3.28;;;;;;;;;;5014947;28;20377;-81
2022/10/03 08:30:40;;;;;;;4.00;3.20;;;;;;;;;;5014894;28;20467;-81
2022/10/03 08:33:25;;;;;;;4.05;3.63;;;;;;;;;;5014943;28;20381;-81
2022/10/03 08:36:23;;;;;;;4.70;3.50;;;;;;;;;;5014972;28;20391;-81
2022/10/03 08:38:53;;;;;;;5.60;3.80;;;;;;;;;;4982148;28;20870;-81
2022/10/03 08:41:29;;;;;;;4.15;3.83;;;;;;;;;;5014787;28;20381;-81
2022/10/03 08:44:06;;;;;;;3.90;3.50;;;;;;;;;;4996962;28;20980;-81
2022/10/03 08:47:07;;;;;;;4.70;3.10;;;;;;;;;;4997290;28;20389;-81
2022/10/03 08:49:36;;;;;;;5.32;3.65;;;;;;;;;;4954384;28;20406;-81
2022/10/03 08:52:20;;;;;;;4.13;3.40;;;;;;;;;;5002594;28;20443;-81
2022/10/03 08:54:57;;;;;;;5.65;3.78;;;;;;;;;;5016621;28;20385;-81
2022/10/03 08:57:29;;;;;;;4.13;3.53;;;;;;;;;;4995349;28;20378;-81
2022/10/03 09:00:08;;;;;;;6.68;3.50;;;;;;;;;;5008583;28;20377;-81
2022/10/03 09:02:46;;;;;;;6.63;3.25;;;;;;;;;;4996518;28;20770;-80
2022/10/03 09:05:24;;;;;;;4.78;2.75;;;;;;;;;;5014419;28;20384;-80
2022/10/03 09:07:59;;;;;;;4.72;2.67;;;;;;;;;;4997007;28;20388;-80
2022/10/03 09:10:32;;;;;;;4.13;2.80;;;;;;;;;;5014150;28;20389;-80
2022/10/03 09:13:08;;;;;;;4.47;2.63;;;;;;;;;;5014085;28;20428;-81
2022/10/03 09:15:55;;;;;;;4.15;2.45;;;;;;;;;;5013849;28;20488;-80
2022/10/03 09:18:33;;;;;;;4.03;2.55;;;;;;;;;;4996373;28;20397;-80
2022/10/03 09:21:05;;;;;;;5.38;2.67;;;;;;;;;;5013291;28;20876;-80
2022/10/03 09:23:37;;;;;;;4.07;2.40;;;;;;;;;;5013919;28;20420;-80
2022/10/03 09:26:22;;;;;;;5.40;2.70;;;;;;;;;;5013800;28;20389;-80
2022/10/03 09:28:54;;;;;;;4.40;2.20;;;;;;;;;;5013862;28;20460;-80
2022/10/03 09:31:26;;;;;;;3.88;2.08;;;;;;;;;;5013186;28;20389;-80
2022/10/03 09:33:54;;;;;;;4.40;2.30;;;;;;;;;;5003604;28;20395;-80
2022/10/03 09:36:38;;;;;;;3.53;2.60;;;;;;;;;;5013341;28;20927;-81
2022/10/03 09:39:23;;;;;;;4.72;2.30;;;;;;;;;;5011517;28;20420;-80
2022/10/03 09:42:10;;;;;;;3.75;2.75;;;;;;;;;;5007584;28;20762;-80
2022/10/03 09:44:46;;;;;;;3.73;2.37;;;;;;;;;;5013821;28;20444;-80
2022/10/03 09:47:21;;;;;;;3.67;2.20;;;;;;;;;;5012250;28;20389;-80
2022/10/03 09:49:47;;;;;;;3.65;2.00;;;;;;;;;;5011266;28;20747;-80
2022/10/03 09:52:22;;;;;;;3.95;2.38;;;;;;;;;;5013528;28;20373;-80
2022/10/03 09:55:11;;;;;;;3.35;1.90;;;;;;;;;;5012729;28;20384;-80
2022/10/03 09:57:46;;;;;;;3.78;2.50;;;;;;;;;;5013387;28;20371;-80
2022/10/03 10:00:48;;;;;;;2.63;2.20;;;;;;;;;;5008724;28;20443;-80
2022/10/03 10:03:17;;;;;;;4.05;1.83;;;;;;;;;;4931340;29;20431;-80
2022/10/03 10:06:01;;;;;;;3.40;2.00;;;;;;;;;;4991328;28;20389;-81
2022/10/03 10:08:39;;;;;;;3.65;1.90;;;;;;;;;;5008274;28;20439;-82
2022/10/03 10:11:23;;;;;;;4.70;1.88;;;;;;;;;;5002026;28;20384;-82
2022/10/03 10:13:55;;;;;;;2.88;1.80;;;;;;;;;;5013210;28;20408;-82
2022/10/03 10:16:45;;;;;;;2.72;2.00;;;;;;;;;;5009456;28;20401;-82
2022/10/03 10:19:14;;;;;;;3.45;2.08;;;;;;;;;;4994978;28;20471;-82
2022/10/03 10:21:50;;;;;;;5.05;2.30;;;;;;;;;;5012822;28;20794;-82
2022/10/03 10:24:35;;;;;;;3.35;1.88;;;;;;;;;;5012569;28;20440;-82
2022/10/03 10:27:04;;;;;;;5.78;2.00;;;;;;;;;;5012687;28;20383;-82
2022/10/03 10:29:41;;;;;;;2.50;1.55;;;;;;;;;;5012478;28;20493;-81
2022/10/03 10:32:13;;;;;;;4.45;1.85;;;;;;;;;;5012725;28;20472;-82
2022/10/03 10:34:58;;;;;;;3.47;1.52;;;;;;;;;;5012721;28;20385;-81
2022/10/03 10:37:53;;;;;;;3.13;1.48;;;;;;;;;;4994999;28;20405;-82
2022/10/03 10:40:39;;;;;;;5.10;1.60;;;;;;;;;;5010215;28;20400;-79
2022/10/03 10:43:25;;;;;;;3.92;1.42;;;;;;;;;;5012382;28;20404;-82
2022/10/03 10:46:10;;;;;;;2.28;1.35;;;;;;;;;;4995082;28;20826;-82
2022/10/03 10:48:36;;;;;;;1.85;1.10;;;;;;;;;;5012634;28;20882;-81
2022/10/03 10:51:20;;;;;;;2.85;1.65;;;;;;;;;;5012277;28;20389;-81
2022/10/03 10:54:05;;;;;;;2.58;1.50;;;;;;;;;;5012588;28;20377;-82
2022/10/03 10:56:49;;;;;;;2.72;1.50;;;;;;;;;;5012426;28;20384;-81
2022/10/03 10:59:21;;;;;;;2.95;1.40;;;;;;;;;;5014612;28;20941;-82
2022/10/03 11:02:03;;;;;;;3.20;1.35;;;;;;;;;;5007746;28;20400;-82
2022/10/03 11:04:48;;;;;;;2.67;1.50;;;;;;;;;;5012469;28;20416;-81
2022/10/03 11:07:36;;;;;;;3.17;1.58;;;;;;;;;;4998437;28;20483;-81
2022/10/03 11:10:08;;;;;;;2.83;1.50;;;;;;;;;;5009898;28;20417;-79
2022/10/03 11:12:44;;;;;;;3.67;1.57;;;;;;;;;;5010148;28;20393;-79
2022/10/03 11:15:29;;;;;;;4.25;1.65;;;;;;;;;;5007698;28;20397;-79
2022/10/03 11:17:58;;;;;;;3.92;1.58;;;;;;;;;;5016303;28;20393;-82
2022/10/03 11:20:54;;;;;;;3.30;1.50;;;;;;;;;;5015652;28;20385;-80
2022/10/03 11:23:40;;;;;;;4.60;3.10;;;;;;;;;;5016066;28;20479;-80
2022/10/03 11:26:24;;;;;;;4.30;3.05;;;;;;;;;;5016166;28;20385;-80
2022/10/03 11:28:53;;;;;;;4.13;2.50;;;;;;;;;;5015353;28;20399;-81
2022/10/03 11:31:45;;;;;;;3.60;2.70;;;;;;;;;;5009857;28;20420;-80
2022/10/03 11:34:30;;;;;;;2.80;1.77;;;;;;;;;;4978961;28;20386;-80
2022/10/03 11:37:02;;;;;;;3.70;1.63;;;;;;;;;;5000094;28;20449;-80
2022/10/03 11:39:34;;;;;;;4.72;2.80;;;;;;;;;;5003770;28;20421;-80
2022/10/03 11:42:04;;;;;;;2.60;1.20;;;;;;;;;;4999073;28;20885;-80
2022/10/03 11:44:32;;;;;;;2.20;1.40;;;;;;;;;;5013167;28;20408;-80
2022/10/03 11:47:27;;;;;;;2.80;1.30;;;;;;;;;;5014553;28;20854;-80
2022/10/03 11:50:12;;;;;;;1.88;1.27;;;;;;;;;;4996971;28;20397;-80
2022/10/03 11:52:57;;;;;;;4.68;1.67;;;;;;;;;;5014057;28;20399;-80
2022/10/03 11:55:23;;;;;;;3.27;1.30;;;;;;;;;;5015249;28;20439;-80
2022/10/03 11:58:03;;;;;;;3.78;1.27;;;;;;;;;;5015553;28;20384;-80
2022/10/03 12:00:31;;;;;;;2.80;1.50;;;;;;;;;;4997511;28;20888;-80
2022/10/03 12:03:05;;;;;;;4.40;1.70;;;;;;;;;;5015402;28;20459;-81
2022/10/03 12:05:34;;;;;;;2.42;1.50;;;;;;;;;;5014049;28;20468;-80
2022/10/03 12:11:12;;;;;;;3.13;1.60;;;;;;;;;;5013544;28;20418;-81
2022/10/03 12:13:49;;;;;;;3.05;1.40;;;;;;;;;;5014109;28;20897;-80
2022/10/03 12:16:20;;;;;;;3.40;1.30;;;;;;;;;;5004356;28;20396;-80
2022/10/03 12:18:46;;;;;;;2.20;1.23;;;;;;;;;;5013768;28;20488;-80
2022/10/03 12:21:14;;;;;;;5.10;1.40;;;;;;;;;;5003889;28;20463;-81
2022/10/03 12:23:43;;;;;;;2.78;1.30;;;;;;;;;;5015020;28;20428;-80
2022/10/03 12:26:15;;;;;;;1.88;1.52;;;;;;;;;;5013664;28;20377;-81
2022/10/03 12:28:44;;;;;;;3.00;1.55;;;;;;;;;;5015115;28;20378;-80
2022/10/03 12:31:14;;;;;;;2.25;1.42;;;;;;;;;;5014463;28;20384;-80
2022/10/03 12:33:40;;;;;;;2.13;1.13;;;;;;;;;;5014958;28;20384;-81
2022/10/03 12:36:10;;;;;;;2.10;1.23;;;;;;;;;;5014905;28;20727;-81
2022/10/03 12:38:54;;;;;;;3.28;1.23;;;;;;;;;;5001926;28;20389;-80
2022/10/03 12:41:32;;;;;;;2.57;1.30;;;;;;;;;;5010717;28;20511;-80
2022/10/03 12:44:07;;;;;;;4.22;1.50;;;;;;;;;;5008917;28;20441;-79
2022/10/03 12:46:33;;;;;;;2.75;1.52;;;;;;;;;;5011267;28;20919;-80
2022/10/03 12:49:10;;;;;;;2.03;1.33;;;;;;;;;;5011375;28;20481;-80
2022/10/03 12:51:50;;;;;;;2.85;1.60;;;;;;;;;;5002804;28;20383;-80
2022/10/03 12:54:19;;;;;;;2.47;1.50;;;;;;;;;;4995646;28;20383;-80
2022/10/03 12:56:49;;;;;;;2.33;1.40;;;;;;;;;;5006185;28;20400;-80
2022/10/03 12:59:27;;;;;;;2.92;1.35;;;;;;;;;;5014032;28;20384;-80
2022/10/03 13:02:02;;;;;;;2.97;1.38;;;;;;;;;;5012309;28;20417;-80
2022/10/03 13:04:46;;;;;;;2.92;1.42;;;;;;;;;;5000670;28;20470;-80
2022/10/03 13:07:32;;;;;;;2.88;1.55;;;;;;;;;;5010474;28;20886;-80
2022/10/03 13:10:17;;;;;;;3.30;1.60;;;;;;;;;;5004769;28;20377;-80
2022/10/03 13:12:54;;;;;;;2.40;1.30;;;;;;;;;;5001858;28;20460;-80
2022/10/03 13:15:39;;;;;;;2.70;1.23;;;;;;;;;;5005957;28;20446;-80
2022/10/03 13:18:05;;;;;;;2.67;1.23;;;;;;;;;;5013893;28;20881;-80
2022/10/03 13:20:36;;;;;;;2.33;1.38;;;;;;;;;;5013018;28;20472;-80
2022/10/03 13:23:22;;;;;;;3.25;1.40;;;;;;;;;;5013819;28;20413;-80
2022/10/03 13:26:08;;;;;;;3.05;1.40;;;;;;;;;;5013862;28;20428;-79
2022/10/03 13:28:43;;;;;;;3.00;1.60;;;;;;;;;;5013673;28;20381;-79
2022/10/03 13:31:15;;;;;;;2.80;1.55;;;;;;;;;;5006184;28;20416;-80
2022/10/03 13:33:47;;;;;;;4.30;1.63;;;;;;;;;;5013738;28;20739;-80
2022/10/03 13:36:17;;;;;;;2.63;1.58;;;;;;;;;;5006233;28;20393;-79
2022/10/03 13:38:45;;;;;;;2.90;1.60;;;;;;;;;;5007165;28;20397;-79
2022/10/03 13:41:30;;;;;;;2.80;1.50;;;;;;;;;;5010415;28;20881;-80
2022/10/03 13:43:59;;;;;;;3.03;1.40;;;;;;;;;;5013326;28;20444;-80
2022/10/03 13:46:28;;;;;;;3.05;1.40;;;;;;;;;;5013628;28;20745;-79
2022/10/03 13:48:59;;;;;;;2.00;1.50;;;;;;;;;;5013546;28;20480;-79
2022/10/03 13:51:33;;;;;;;3.80;1.67;;;;;;;;;;5013465;28;20383;-80
2022/10/03 13:54:03;;;;;;;4.22;1.60;;;;;;;;;;5013543;28;20381;-79
2022/10/03 13:56:48;;;;;;;3.58;1.75;;;;;;;;;;4995613;28;20821;-79
2022/10/03 13:59:50;;;;;;;4.00;1.80;;;;;;;;;;5013434;28;20487;-79
2022/10/03 14:02:18;;;;;;;3.95;1.50;;;;;;;;;;4936491;29;20401;-80
2022/10/03 14:05:03;;;;;;;2.67;1.30;;;;;;;;;;5002488;28;20480;-79
2022/10/03 14:07:29;;;;;;;4.18;1.50;;;;;;;;;;5013253;28;20789;-80
2022/10/03 14:10:13;;;;;;;2.35;1.50;;;;;;;;;;5008091;28;20379;-79
2022/10/03 14:12:49;;;;;;;2.50;1.30;;;;;;;;;;4995519;28;20799;-79
2022/10/03 14:15:34;;;;;;;3.15;1.30;;;;;;;;;;5013290;28;20439;-79
2022/10/03 14:18:00;;;;;;;3.50;1.40;;;;;;;;;;5013037;28;20384;-80
2022/10/03 14:20:35;;;;;;;3.22;1.40;;;;;;;;;;5012826;28;20424;-80
2022/10/03 14:23:01;;;;;;;4.70;1.45;;;;;;;;;;5012936;28;20459;-80
2022/10/03 14:25:32;;;;;;;2.67;1.35;;;;;;;;;;5012950;28;20392;-79
2022/10/03 14:28:03;;;;;;;2.40;1.10;;;;;;;;;;5012924;28;20778;-79
2022/10/03 14:30:34;;;;;;;2.45;1.42;;;;;;;;;;5012838;28;20877;-79
2022/10/03 14:33:13;;;;;;;4.22;1.60;;;;;;;;;;5012879;28;20881;-80
2022/10/03 14:35:38;;;;;;;3.45;1.50;;;;;;;;;;5012796;28;20384;-80
2022/10/03 14:38:22;;;;;;;5.40;1.40;;;;;;;;;;5012870;28;20965;-80
2022/10/03 14:40:49;;;;;;;3.42;1.30;;;;;;;;;;5012776;28;20393;-80
2022/10/03 14:43:30;;;;;;;4.57;1.60;;;;;;;;;;5012667;28;20480;-79
2022/10/03 14:45:58;;;;;;;3.75;1.73;;;;;;;;;;5012592;28;20463;-79
2022/10/03 14:48:44;;;;;;;2.60;1.63;;;;;;;;;;5012428;28;20858;-79
2022/10/03 14:51:29;;;;;;;2.63;1.40;;;;;;;;;;5012176;28;20381;-79
2022/10/03 14:54:01;;;;;;;2.28;1.50;;;;;;;;;;5012464;28;20890;-79
2022/10/03 14:56:27;;;;;;;3.28;1.60;;;;;;;;;;5015025;28;20424;-79
2022/10/03 14:58:54;;;;;;;2.27;1.40;;;;;;;;;;5012915;28;20443;-79
2022/10/03 15:01:29;;;;;;;3.03;1.77;;;;;;;;;;5012248;28;20389;-79
2022/10/03 15:04:01;;;;;;;2.97;1.35;;;;;;;;;;5012485;28;20991;-79
2022/10/03 15:06:27;;;;;;;2.50;1.30;;;;;;;;;;5012445;28;20385;-80
2022/10/03 15:08:55;;;;;;;2.05;1.20;;;;;;;;;;5012554;28;20392;-79
2022/10/03 15:11:25;;;;;;;3.10;1.83;;;;;;;;;;5011983;28;20388;-79
2022/10/03 15:13:57;;;;;;;3.13;1.63;;;;;;;;;;5010963;28;20389;-79
2022/10/03 15:16:23;;;;;;;4.10;1.50;;;;;;;;;;5012485;28;20383;-79
2022/10/03 15:19:10;;;;;;;3.60;1.70;;;;;;;;;;5012417;28;20384;-79
2022/10/03 15:21:37;;;;;;;2.65;1.42;;;;;;;;;;5012135;28;20455;-80
2022/10/03 15:24:06;;;;;;;4.03;2.28;;;;;;;;;;5012104;28;20408;-80
2022/10/03 15:26:34;;;;;;;2.65;1.30;;;;;;;;;;5012318;28;20380;-79
2022/10/03 15:29:02;;;;;;;2.55;1.45;;;;;;;;;;5012263;28;20896;-79
2022/10/03 15:31:44;;;;;;;3.22;2.60;;;;;;;;;;4994513;28;20825;-79
2022/10/03 15:34:30;;;;;;;3.30;1.70;;;;;;;;;;5012146;28;20389;-79
2022/10/03 15:37:09;;;;;;;2.28;1.77;;;;;;;;;;5012155;28;20446;-79
2022/10/03 15:39:39;;;;;;;2.75;1.30;;;;;;;;;;5012481;28;20405;-79
2022/10/03 15:42:08;;;;;;;1.92;1.30;;;;;;;;;;5012157;28;20381;-80
2022/10/03 15:44:54;;;;;;;3.10;1.40;;;;;;;;;;5010372;28;20408;-79
2022/10/03 15:47:20;;;;;;;1.97;1.30;;;;;;;;;;5006941;28;20389;-79
2022/10/03 15:49:49;;;;;;;2.88;1.40;;;;;;;;;;5012058;28;20392;-79
2022/10/03 15:52:21;;;;;;;2.00;1.30;;;;;;;;;;4994440;28;20392;-79
2022/10/03 15:54:50;;;;;;;2.10;1.40;;;;;;;;;;5012222;28;20388;-79
2022/10/03 15:57:20;;;;;;;2.22;1.50;;;;;;;;;;5012036;28;20880;-79
2022/10/03 15:59:50;;;;;;;2.13;1.20;;;;;;;;;;5012143;28;20384;-79
2022/10/03 16:02:19;;;;;;;2.42;1.27;;;;;;;;;;5015132;28;20400;-79
2022/10/03 16:04:46;;;;;;;3.80;1.43;;;;;;;;;;5015457;28;20878;-80
2022/10/03 16:07:21;;;;;;;2.42;1.50;;;;;;;;;;5014868;28;20408;-80
2022/10/03 16:09:57;;;;;;;3.65;1.50;;;;;;;;;;5013833;28;20432;-80
2022/10/03 16:12:32;;;;;;;3.35;1.40;;;;;;;;;;5007544;28;20390;-80
2022/10/03 16:15:06;;;;;;;2.13;1.30;;;;;;;;;;5008925;28;20385;-79
2022/10/03 16:17:40;;;;;;;2.55;1.50;;;;;;;;;;5001791;28;20475;-79
2022/10/03 16:20:27;;;;;;;2.03;1.45;;;;;;;;;;5010721;28;20385;-79
2022/10/03 16:22:57;;;;;;;3.25;1.50;;;;;;;;;;5010479;28;20418;-80
2022/10/03 16:25:39;;;;;;;1.90;1.50;;;;;;;;;;5014197;28;20789;-80
2022/10/03 16:28:07;;;;;;;3.08;1.80;;;;;;;;;;5014478;28;20385;-80
2022/10/03 16:30:50;;;;;;;3.78;1.60;;;;;;;;;;5014769;28;20443;-80
2022/10/03 16:33:18;;;;;;;2.53;1.75;;;;;;;;;;5008998;28;20386;-78
2022/10/03 16:35:48;;;;;;;5.03;1.90;;;;;;;;;;4996618;28;20388;-79
2022/10/03 16:38:24;;;;;;;2.47;1.42;;;;;;;;;;4995476;28;20946;-79
2022/10/03 16:40:59;;;;;;;1.98;1.38;;;;;;;;;;5010855;28;20492;-79
2022/10/03 16:43:26;;;;;;;3.80;1.67;;;;;;;;;;5014696;28;20401;-79
2022/10/03 16:45:53;;;;;;;2.88;1.65;;;;;;;;;;5014640;28;20415;-79
2022/10/03 16:51:05;;;;;;;2.95;1.45;;;;;;;;;;4998531;28;20452;-79
2022/10/03 16:53:31;;;;;;;2.53;1.60;;;;;;;;;;4998404;28;20391;-79
2022/10/03 16:56:07;;;;;;;3.67;1.80;;;;;;;;;;5010645;28;20468;-79
2022/10/03 16:58:38;;;;;;;3.13;1.57;;;;;;;;;;5014317;28;20477;-79
2022/10/03 17:01:34;;;;;;;5.28;1.88;;;;;;;;;;4996600;28;20425;-79
2022/10/03 17:04:32;;;;;;;2.88;1.60;;;;;;;;;;4993547;28;20505;-80
2022/10/03 17:07:00;;;;;;;4.05;2.03;;;;;;;;;;4964109;28;20413;-80
2022/10/03 17:09:26;;;;;;;2.25;1.80;;;;;;;;;;5014236;28;20413;-80
2022/10/03 17:11:56;;;;;;;3.10;1.92;;;;;;;;;;5013509;28;20459;-80
2022/10/03 17:14:27;;;;;;;2.60;1.80;;;;;;;;;;5014115;28;20392;-80
2022/10/03 17:17:08;;;;;;;3.27;1.77;;;;;;;;;;5014437;28;20395;-80
2022/10/03 17:19:42;;;;;;;2.72;1.60;;;;;;;;;;5005195;28;20398;-80
2022/10/03 17:22:16;;;;;;;4.95;1.90;;;;;;;;;;5007125;28;20393;-80
2022/10/03 17:24:45;;;;;;;2.47;2.28;;;;;;;;;;4994663;28;20432;-81
2022/10/03 17:27:18;;;;;;;2.40;1.52;;;;;;;;;;5013871;28;20492;-81
2022/10/03 17:29:48;;;;;;;2.92;2.58;;;;;;;;;;5011029;28;20389;-81
2022/10/03 17:32:20;;;;;;;4.28;2.00;;;;;;;;;;5002262;28;20390;-80
2022/10/03 17:34:50;;;;;;;4.70;2.20;;;;;;;;;;5013873;28;20380;-80
2022/10/03 17:37:19;;;;;;;4.50;2.00;;;;;;;;;;5009396;28;20389;-79
2022/10/03 17:39:45;;;;;;;2.72;1.98;;;;;;;;;;5012200;28;20408;-80
2022/10/03 17:42:30;;;;;;;3.78;2.10;;;;;;;;;;5008132;28;20761;-80
2022/10/03 17:45:11;;;;;;;2.70;1.83;;;;;;;;;;5005551;28;20397;-79
2022/10/03 17:47:56;;;;;;;4.53;2.10;;;;;;;;;;5011369;28;20903;-79
2022/10/03 17:50:24;;;;;;;2.88;2.15;;;;;;;;;;5013584;28;20389;-80
2022/10/03 17:52:52;;;;;;;6.68;2.25;;;;;;;;;;5013423;28;20395;-80
2022/10/03 17:55:20;;;;;;;3.70;2.10;;;;;;;;;;5008340;28;20385;-80
2022/10/03 17:57:52;;;;;;;3.25;2.40;;;;;;;;;;4995530;28;20878;-79
2022/10/03 18:00:38;;;;;;;2.50;2.30;;;;;;;;;;5013035;28;20376;-80
2022/10/03 18:03:09;;;;;;;3.17;2.10;;;;;;;;;;5008016;28;20473;-80
2022/10/03 18:05:38;;;;;;;3.60;2.40;;;;;;;;;;5011391;28;20399;-80
2022/10/03 18:08:07;;;;;;;3.00;2.50;;;;;;;;;;5013110;28;20410;-80
2022/10/03 18:10:37;;;;;;;2.90;2.63;;;;;;;;;;5013025;28;20476;-80
2022/10/03 18:13:07;;;;;;;4.20;2.38;;;;;;;;;;5010468;28;20411;-80
2022/10/03 18:15:39;;;;;;;13.57;3.00;;;;;;;;;;5012758;28;20392;-80
2022/10/03 18:18:15;;;;;;;6.65;2.50;;;;;;;;;;5012993;28;20387;-80
2022/10/03 18:20:48;;;;;;;3.75;2.30;;;;;;;;;;5012895;28;20384;-80
2022/10/03 18:23:24;;;;;;;2.88;2.05;;;;;;;;;;4992259;28;20495;-80
2022/10/03 18:25:56;;;;;;;6.53;2.40;;;;;;;;;;5007693;28;20753;-81
2022/10/03 18:28:26;;;;;;;4.05;2.25;;;;;;;;;;5012079;28;20464;-82
2022/10/03 18:31:03;;;;;;;5.43;2.33;;;;;;;;;;5011941;28;20464;-82
2022/10/03 18:33:41;;;;;;;3.22;2.78;;;;;;;;;;5012131;28;20435;-82
2022/10/03 18:36:10;;;;;;;5.43;4.20;;;;;;;;;;5012646;28;20965;-82
2022/10/03 18:38:37;;;;;;;6.30;5.68;;;;;;;;;;5012228;28;20381;-82
2022/10/03 18:41:05;;;;;;;7.80;6.13;;;;;;;;;;4994873;28;20443;-82
2022/10/03 18:43:44;;;;;;;7.78;5.22;;;;;;;;;;5014394;28;20769;-81
2022/10/03 18:46:15;;;;;;;5.30;4.78;;;;;;;;;;5012321;28;20401;-82
2022/10/03 18:49:16;;;;;;;5.50;4.80;;;;;;;;;;5011266;28;20881;-82
2022/10/03 18:51:49;;;;;;;5.80;5.22;;;;;;;;;;4955110;28;20397;-82
2022/10/03 18:54:22;;;;;;;5.13;4.63;;;;;;;;;;5012676;28;20389;-81
2022/10/03 18:57:01;;;;;;;5.07;4.67;;;;;;;;;;5012375;28;20385;-82
2022/10/03 18:59:35;;;;;;;5.57;4.82;;;;;;;;;;5012687;28;20389;-81
2022/10/03 19:02:02;;;;;;;5.30;4.80;;;;;;;;;;5012102;28;20507;-81
2022/10/03 19:04:36;;;;;;;5.40;4.90;;;;;;;;;;5011851;28;20431;-82
2022/10/03 19:07:10;;;;;;;5.37;4.77;;;;;;;;;;5012016;28;20408;-82
2022/10/03 19:09:39;;;;;;;5.70;4.90;;;;;;;;;;5012537;28;20384;-81
2022/10/03 19:12:14;;;;;;;5.30;4.80;;;;;;;;;;5012147;28;20385;-81
2022/10/03 19:14:47;;;;;;;5.63;4.40;;;;;;;;;;5011896;28;20396;-81
2022/10/03 19:17:24;;;;;;;4.93;4.53;;;;;;;;;;5009427;28;20385;-82
2022/10/03 19:19:54;;;;;;;4.75;4.35;;;;;;;;;;5011968;28;20380;-81
2022/10/03 19:22:24;;;;;;;5.15;4.60;;;;;;;;;;5012050;28;20381;-79
2022/10/03 19:24:51;;;;;;;5.20;4.60;;;;;;;;;;5007489;28;20492;-79
2022/10/03 19:27:18;;;;;;;5.28;4.88;;;;;;;;;;5011914;28;20416;-82
2022/10/03 19:29:47;;;;;;;5.25;4.78;;;;;;;;;;5012457;28;20385;-81
2022/10/03 19:32:31;;;;;;;5.30;4.80;;;;;;;;;;4994634;28;20385;-82
2022/10/03 19:35:03;;;;;;;6.03;5.47;;;;;;;;;;5011662;28;20701;-82
2022/10/03 19:37:40;;;;;;;5.45;5.05;;;;;;;;;;5015748;28;20381;-81
2022/10/03 19:40:12;;;;;;;6.30;5.70;;;;;;;;;;5015459;28;20479;-82
2022/10/03 19:42:49;;;;;;;5.90;5.28;;;;;;;;;;5012602;28;20388;-80
2022/10/03 19:45:16;;;;;;;7.07;6.57;;;;;;;;;;5013788;28;20537;-80
2022/10/03 19:47:47;;;;;;;8.30;7.50;;;;;;;;;;5014455;28;20385;-80